sensor_id;sensor_type;location;lat;lon;timestamp;P1;durP1;ratioP1;P2;durP2;ratioP2
68247;SDS011;55064;49.636;12.164;2024-01-30T00:01:38;19.33;;;6.40;;
68247;SDS011;55064;49.636;12.164;2024-01-30T00:04:03;19.67;;;7.03;;
68247;SDS011;55064;49.636;12.164;2024-01-30T00:06:29;17.83;;;6.50;;
68247;SDS011;55064;49.636;12.164;2024-01-30T00:08:54;16.90;;;6.57;;
68247;SDS011;55064;49.636;12.164;2024-01-30T00:11:20;17.80;;;7.00;;
68247;SDS011;55064;49.636;12.164;2024-01-30T00:13:46;17.63;;;7.45;;
68247;SDS011;55064;49.636;12.164;2024-01-30T00:16:20;17.97;;;7.67;;
68247;SDS011;55064;49.636;12.164;2024-01-30T00:18:47;19.80;;;7.28;;
68247;SDS011;55064;49.636;12.164;2024-01-30T00:21:13;16.60;;;6.37;;
68247;SDS011;55064;49.636;12.164;2024-01-30T00:23:38;18.58;;;6.72;;
68247;SDS011;55064;49.636;12.164;2024-01-30T00:26:03;17.63;;;6.33;;
68247;SDS011;55064;49.636;12.164;2024-01-30T00:28:30;15.23;;;6.53;;
68247;SDS011;55064;49.636;12.164;2024-01-30T00:30:55;17.73;;;6.60;;
68247;SDS011;55064;49.636;12.164;2024-01-30T00:33:20;18.03;;;6.93;;
68247;SDS011;55064;49.636;12.164;2024-01-30T00:35:46;21.63;;;8.35;;
68247;SDS011;55064;49.636;12.164;2024-01-30T00:38:12;19.27;;;7.60;;
68247;SDS011;55064;49.636;12.164;2024-01-30T00:40:37;24.97;;;8.83;;
68247;SDS011;55064;49.636;12.164;2024-01-30T00:43:02;21.70;;;8.70;;
68247;SDS011;55064;49.636;12.164;2024-01-30T00:45:28;22.40;;;9.13;;
68247;SDS011;55064;49.636;12.164;2024-01-30T00:47:53;23.50;;;8.95;;
68247;SDS011;55064;49.636;12.164;2024-01-30T00:50:19;21.23;;;8.63;;
68247;SDS011;55064;49.636;12.164;2024-01-30T00:52:44;22.37;;;8.77;;
68247;SDS011;55064;49.636;12.164;2024-01-30T00:55:10;23.00;;;9.00;;
68247;SDS011;55064;49.636;12.164;2024-01-30T00:57:36;20.45;;;9.05;;
68247;SDS011;55064;49.636;12.164;2024-01-30T01:00:01;30.70;;;11.37;;
68247;SDS011;55064;49.636;12.164;2024-01-30T01:02:28;20.52;;;8.90;;
68247;SDS011;55064;49.636;12.164;2024-01-30T01:04:53;20.17;;;8.77;;
68247;SDS011;55064;49.636;12.164;2024-01-30T01:07:18;21.77;;;8.23;;
68247;SDS011;55064;49.636;12.164;2024-01-30T01:09:44;21.20;;;8.50;;
68247;SDS011;55064;49.636;12.164;2024-01-30T01:12:09;29.77;;;8.80;;
68247;SDS011;55064;49.636;12.164;2024-01-30T01:14:35;21.70;;;8.83;;
68247;SDS011;55064;49.636;12.164;2024-01-30T01:17:01;20.65;;;8.48;;
68247;SDS011;55064;49.636;12.164;2024-01-30T01:19:26;21.87;;;8.73;;
68247;SDS011;55064;49.636;12.164;2024-01-30T01:21:52;18.75;;;7.68;;
68247;SDS011;55064;49.636;12.164;2024-01-30T01:24:18;23.07;;;8.30;;
68247;SDS011;55064;49.636;12.164;2024-01-30T01:26:43;16.23;;;7.18;;
68247;SDS011;55064;49.636;12.164;2024-01-30T01:29:09;19.03;;;7.30;;
68247;SDS011;55064;49.636;12.164;2024-01-30T01:31:36;17.73;;;6.78;;
68247;SDS011;55064;49.636;12.164;2024-01-30T01:34:08;19.20;;;6.88;;
68247;SDS011;55064;49.636;12.164;2024-01-30T01:36:36;19.87;;;6.73;;
68247;SDS011;55064;49.636;12.164;2024-01-30T01:39:01;19.73;;;7.75;;
68247;SDS011;55064;49.636;12.164;2024-01-30T01:41:33;17.45;;;6.65;;
68247;SDS011;55064;49.636;12.164;2024-01-30T01:43:59;19.53;;;6.23;;
68247;SDS011;55064;49.636;12.164;2024-01-30T01:46:29;17.20;;;6.78;;
68247;SDS011;55064;49.636;12.164;2024-01-30T01:48:57;19.23;;;6.90;;
68247;SDS011;55064;49.636;12.164;2024-01-30T01:51:24;21.48;;;7.07;;
68247;SDS011;55064;49.636;12.164;2024-01-30T01:53:52;18.93;;;6.90;;
68247;SDS011;55064;49.636;12.164;2024-01-30T01:56:22;21.88;;;7.68;;
68247;SDS011;55064;49.636;12.164;2024-01-30T01:58:48;20.92;;;7.85;;
68247;SDS011;55064;49.636;12.164;2024-01-30T02:01:14;21.85;;;8.30;;
68247;SDS011;55064;49.636;12.164;2024-01-30T02:03:43;19.70;;;8.40;;
68247;SDS011;55064;49.636;12.164;2024-01-30T02:06:08;23.83;;;8.47;;
68247;SDS011;55064;49.636;12.164;2024-01-30T02:08:34;24.60;;;8.38;;
68247;SDS011;55064;49.636;12.164;2024-01-30T02:11:02;19.97;;;8.10;;
68247;SDS011;55064;49.636;12.164;2024-01-30T02:13:27;15.02;;;6.78;;
68247;SDS011;55064;49.636;12.164;2024-01-30T02:15:53;16.27;;;6.93;;
68247;SDS011;55064;49.636;12.164;2024-01-30T02:18:19;17.63;;;7.07;;
68247;SDS011;55064;49.636;12.164;2024-01-30T02:20:48;19.92;;;7.07;;
68247;SDS011;55064;49.636;12.164;2024-01-30T02:23:15;18.53;;;7.33;;
68247;SDS011;55064;49.636;12.164;2024-01-30T02:25:40;18.17;;;6.60;;
68247;SDS011;55064;49.636;12.164;2024-01-30T02:28:10;15.43;;;5.97;;
68247;SDS011;55064;49.636;12.164;2024-01-30T02:30:37;16.50;;;6.22;;
68247;SDS011;55064;49.636;12.164;2024-01-30T02:33:02;16.93;;;6.13;;
68247;SDS011;55064;49.636;12.164;2024-01-30T02:35:27;17.87;;;5.97;;
68247;SDS011;55064;49.636;12.164;2024-01-30T02:37:53;16.13;;;6.07;;
68247;SDS011;55064;49.636;12.164;2024-01-30T02:40:18;15.77;;;5.80;;
68247;SDS011;55064;49.636;12.164;2024-01-30T02:42:44;16.90;;;6.15;;
68247;SDS011;55064;49.636;12.164;2024-01-30T02:45:10;18.10;;;6.57;;
68247;SDS011;55064;49.636;12.164;2024-01-30T02:47:36;18.15;;;6.28;;
68247;SDS011;55064;49.636;12.164;2024-01-30T02:50:01;14.70;;;5.70;;
68247;SDS011;55064;49.636;12.164;2024-01-30T02:52:27;15.87;;;5.73;;
68247;SDS011;55064;49.636;12.164;2024-01-30T02:54:52;19.38;;;6.70;;
68247;SDS011;55064;49.636;12.164;2024-01-30T02:57:17;16.03;;;6.63;;
68247;SDS011;55064;49.636;12.164;2024-01-30T02:59:43;17.87;;;6.13;;
68247;SDS011;55064;49.636;12.164;2024-01-30T03:02:08;15.53;;;6.63;;
68247;SDS011;55064;49.636;12.164;2024-01-30T03:04:33;17.93;;;6.87;;
68247;SDS011;55064;49.636;12.164;2024-01-30T03:06:59;17.37;;;6.37;;
68247;SDS011;55064;49.636;12.164;2024-01-30T03:09:24;16.50;;;6.70;;
68247;SDS011;55064;49.636;12.164;2024-01-30T03:11:49;19.83;;;7.40;;
68247;SDS011;55064;49.636;12.164;2024-01-30T03:14:15;17.50;;;6.40;;
68247;SDS011;55064;49.636;12.164;2024-01-30T03:16:40;15.47;;;6.63;;
68247;SDS011;55064;49.636;12.164;2024-01-30T03:19:06;18.03;;;6.83;;
68247;SDS011;55064;49.636;12.164;2024-01-30T03:21:34;15.93;;;6.43;;
68247;SDS011;55064;49.636;12.164;2024-01-30T03:24:00;14.97;;;6.57;;
68247;SDS011;55064;49.636;12.164;2024-01-30T03:26:27;15.65;;;6.72;;
68247;SDS011;55064;49.636;12.164;2024-01-30T03:28:52;18.33;;;6.83;;
68247;SDS011;55064;49.636;12.164;2024-01-30T03:31:17;18.40;;;6.93;;
68247;SDS011;55064;49.636;12.164;2024-01-30T03:33:43;18.58;;;6.57;;
68247;SDS011;55064;49.636;12.164;2024-01-30T03:36:08;17.57;;;6.20;;
68247;SDS011;55064;49.636;12.164;2024-01-30T03:38:34;19.83;;;6.80;;
68247;SDS011;55064;49.636;12.164;2024-01-30T03:41:00;18.23;;;6.18;;
68247;SDS011;55064;49.636;12.164;2024-01-30T03:43:25;20.17;;;6.50;;
68247;SDS011;55064;49.636;12.164;2024-01-30T03:45:51;17.88;;;7.47;;
68247;SDS011;55064;49.636;12.164;2024-01-30T03:48:16;16.13;;;6.53;;
68247;SDS011;55064;49.636;12.164;2024-01-30T03:50:42;16.93;;;6.77;;
68247;SDS011;55064;49.636;12.164;2024-01-30T03:53:07;17.02;;;6.47;;
68247;SDS011;55064;49.636;12.164;2024-01-30T03:55:33;17.20;;;6.90;;
68247;SDS011;55064;49.636;12.164;2024-01-30T03:57:58;20.53;;;7.30;;
68247;SDS011;55064;49.636;12.164;2024-01-30T04:00:23;17.40;;;6.57;;
68247;SDS011;55064;49.636;12.164;2024-01-30T04:02:49;17.50;;;5.80;;
68247;SDS011;55064;49.636;12.164;2024-01-30T04:05:16;16.35;;;6.15;;
68247;SDS011;55064;49.636;12.164;2024-01-30T04:07:41;17.93;;;6.17;;
68247;SDS011;55064;49.636;12.164;2024-01-30T04:10:07;16.33;;;6.27;;
68247;SDS011;55064;49.636;12.164;2024-01-30T04:12:34;17.00;;;6.13;;
68247;SDS011;55064;49.636;12.164;2024-01-30T04:15:00;17.67;;;6.68;;
68247;SDS011;55064;49.636;12.164;2024-01-30T04:17:26;17.80;;;6.33;;
68247;SDS011;55064;49.636;12.164;2024-01-30T04:19:53;16.67;;;6.32;;
68247;SDS011;55064;49.636;12.164;2024-01-30T04:22:18;14.40;;;6.00;;
68247;SDS011;55064;49.636;12.164;2024-01-30T04:24:43;17.57;;;5.90;;
68247;SDS011;55064;49.636;12.164;2024-01-30T04:27:09;14.67;;;5.73;;
68247;SDS011;55064;49.636;12.164;2024-01-30T04:29:34;17.30;;;6.50;;
68247;SDS011;55064;49.636;12.164;2024-01-30T04:31:59;18.92;;;6.32;;
68247;SDS011;55064;49.636;12.164;2024-01-30T04:34:25;19.43;;;7.30;;
68247;SDS011;55064;49.636;12.164;2024-01-30T04:36:50;18.77;;;6.63;;
68247;SDS011;55064;49.636;12.164;2024-01-30T04:39:15;17.67;;;6.70;;
68247;SDS011;55064;49.636;12.164;2024-01-30T04:41:41;18.47;;;6.20;;
68247;SDS011;55064;49.636;12.164;2024-01-30T04:44:06;20.50;;;6.97;;
68247;SDS011;55064;49.636;12.164;2024-01-30T04:46:32;15.70;;;6.37;;
68247;SDS011;55064;49.636;12.164;2024-01-30T04:48:59;17.45;;;6.70;;
68247;SDS011;55064;49.636;12.164;2024-01-30T04:51:24;17.17;;;6.20;;
68247;SDS011;55064;49.636;12.164;2024-01-30T04:53:50;15.23;;;6.07;;
68247;SDS011;55064;49.636;12.164;2024-01-30T04:56:15;18.23;;;6.50;;
68247;SDS011;55064;49.636;12.164;2024-01-30T04:58:41;21.00;;;8.53;;
68247;SDS011;55064;49.636;12.164;2024-01-30T05:01:06;24.95;;;9.20;;
68247;SDS011;55064;49.636;12.164;2024-01-30T05:03:35;20.83;;;7.93;;
68247;SDS011;55064;49.636;12.164;2024-01-30T05:06:00;20.52;;;8.50;;
68247;SDS011;55064;49.636;12.164;2024-01-30T05:08:26;20.63;;;8.07;;
68247;SDS011;55064;49.636;12.164;2024-01-30T05:10:51;22.63;;;8.40;;
68247;SDS011;55064;49.636;12.164;2024-01-30T05:13:17;18.57;;;8.30;;
68247;SDS011;55064;49.636;12.164;2024-01-30T05:15:42;16.63;;;7.22;;
68247;SDS011;55064;49.636;12.164;2024-01-30T05:18:07;18.90;;;7.30;;
68247;SDS011;55064;49.636;12.164;2024-01-30T05:20:33;21.20;;;8.10;;
68247;SDS011;55064;49.636;12.164;2024-01-30T05:22:58;18.57;;;8.00;;
68247;SDS011;55064;49.636;12.164;2024-01-30T05:25:24;17.90;;;8.60;;
68247;SDS011;55064;49.636;12.164;2024-01-30T05:27:49;21.25;;;7.57;;
68247;SDS011;55064;49.636;12.164;2024-01-30T05:30:14;21.43;;;7.53;;
68247;SDS011;55064;49.636;12.164;2024-01-30T05:32:40;23.60;;;7.90;;
68247;SDS011;55064;49.636;12.164;2024-01-30T05:35:06;23.87;;;8.87;;
68247;SDS011;55064;49.636;12.164;2024-01-30T05:37:32;22.50;;;9.05;;
68247;SDS011;55064;49.636;12.164;2024-01-30T05:39:58;17.90;;;8.63;;
68247;SDS011;55064;49.636;12.164;2024-01-30T05:42:23;22.60;;;9.03;;
68247;SDS011;55064;49.636;12.164;2024-01-30T05:44:49;20.30;;;7.77;;
68247;SDS011;55064;49.636;12.164;2024-01-30T05:47:15;19.65;;;7.40;;
68247;SDS011;55064;49.636;12.164;2024-01-30T05:49:40;17.90;;;7.13;;
68247;SDS011;55064;49.636;12.164;2024-01-30T05:52:06;20.50;;;7.97;;
68247;SDS011;55064;49.636;12.164;2024-01-30T05:54:32;18.97;;;7.03;;
68247;SDS011;55064;49.636;12.164;2024-01-30T05:56:57;22.97;;;7.43;;
68247;SDS011;55064;49.636;12.164;2024-01-30T05:59:23;19.30;;;7.15;;
68247;SDS011;55064;49.636;12.164;2024-01-30T06:01:48;20.03;;;7.23;;
68247;SDS011;55064;49.636;12.164;2024-01-30T06:04:13;17.90;;;7.67;;
68247;SDS011;55064;49.636;12.164;2024-01-30T06:06:39;20.27;;;7.93;;
68247;SDS011;55064;49.636;12.164;2024-01-30T06:09:05;21.30;;;8.03;;
68247;SDS011;55064;49.636;12.164;2024-01-30T06:11:30;22.40;;;9.10;;
68247;SDS011;55064;49.636;12.164;2024-01-30T06:13:56;22.30;;;9.57;;
68247;SDS011;55064;49.636;12.164;2024-01-30T06:16:21;21.83;;;9.60;;
68247;SDS011;55064;49.636;12.164;2024-01-30T06:18:47;18.03;;;8.67;;
68247;SDS011;55064;49.636;12.164;2024-01-30T06:21:13;20.00;;;8.57;;
68247;SDS011;55064;49.636;12.164;2024-01-30T06:23:39;19.73;;;8.13;;
68247;SDS011;55064;49.636;12.164;2024-01-30T06:26:05;24.98;;;10.55;;
68247;SDS011;55064;49.636;12.164;2024-01-30T06:28:31;25.43;;;10.10;;
68247;SDS011;55064;49.636;12.164;2024-01-30T06:30:56;22.53;;;9.17;;
68247;SDS011;55064;49.636;12.164;2024-01-30T06:33:22;24.25;;;9.40;;
68247;SDS011;55064;49.636;12.164;2024-01-30T06:35:47;25.00;;;10.00;;
68247;SDS011;55064;49.636;12.164;2024-01-30T06:38:13;21.60;;;8.50;;
68247;SDS011;55064;49.636;12.164;2024-01-30T06:40:40;23.10;;;9.00;;
68247;SDS011;55064;49.636;12.164;2024-01-30T06:43:06;21.08;;;8.55;;
68247;SDS011;55064;49.636;12.164;2024-01-30T06:45:32;23.25;;;8.27;;
68247;SDS011;55064;49.636;12.164;2024-01-30T06:47:59;27.60;;;10.27;;
68247;SDS011;55064;49.636;12.164;2024-01-30T06:50:24;23.95;;;9.88;;
68247;SDS011;55064;49.636;12.164;2024-01-30T06:52:50;20.10;;;9.50;;
68247;SDS011;55064;49.636;12.164;2024-01-30T06:55:16;26.60;;;10.20;;
68247;SDS011;55064;49.636;12.164;2024-01-30T06:57:41;22.40;;;9.57;;
68247;SDS011;55064;49.636;12.164;2024-01-30T07:00:07;29.70;;;12.10;;
68247;SDS011;55064;49.636;12.164;2024-01-30T07:02:32;26.15;;;10.57;;
68247;SDS011;55064;49.636;12.164;2024-01-30T07:04:58;25.37;;;11.33;;
68247;SDS011;55064;49.636;12.164;2024-01-30T07:07:23;28.13;;;11.90;;
68247;SDS011;55064;49.636;12.164;2024-01-30T07:09:50;27.88;;;10.90;;
68247;SDS011;55064;49.636;12.164;2024-01-30T07:12:20;28.30;;;10.55;;
68247;SDS011;55064;49.636;12.164;2024-01-30T07:14:46;27.73;;;10.67;;
68247;SDS011;55064;49.636;12.164;2024-01-30T07:17:11;26.97;;;10.20;;
68247;SDS011;55064;49.636;12.164;2024-01-30T07:19:37;21.77;;;9.30;;
68247;SDS011;55064;49.636;12.164;2024-01-30T07:22:02;21.67;;;9.52;;
68247;SDS011;55064;49.636;12.164;2024-01-30T07:24:27;24.20;;;9.37;;
68247;SDS011;55064;49.636;12.164;2024-01-30T07:26:53;23.83;;;11.03;;
68247;SDS011;55064;49.636;12.164;2024-01-30T07:29:18;26.07;;;11.50;;
68247;SDS011;55064;49.636;12.164;2024-01-30T07:31:44;26.23;;;10.97;;
68247;SDS011;55064;49.636;12.164;2024-01-30T07:34:09;24.60;;;10.82;;
68247;SDS011;55064;49.636;12.164;2024-01-30T07:36:35;26.08;;;10.23;;
68247;SDS011;55064;49.636;12.164;2024-01-30T07:39:00;25.53;;;10.93;;
68247;SDS011;55064;49.636;12.164;2024-01-30T07:41:26;30.63;;;11.17;;
68247;SDS011;55064;49.636;12.164;2024-01-30T07:43:51;24.07;;;10.50;;
68247;SDS011;55064;49.636;12.164;2024-01-30T07:46:18;26.17;;;10.18;;
68247;SDS011;55064;49.636;12.164;2024-01-30T07:48:43;25.07;;;10.40;;
68247;SDS011;55064;49.636;12.164;2024-01-30T07:51:09;27.70;;;9.77;;
68247;SDS011;55064;49.636;12.164;2024-01-30T07:53:34;24.83;;;9.45;;
68247;SDS011;55064;49.636;12.164;2024-01-30T07:56:00;21.10;;;8.93;;
68247;SDS011;55064;49.636;12.164;2024-01-30T07:58:25;24.20;;;9.20;;
68247;SDS011;55064;49.636;12.164;2024-01-30T08:00:52;20.60;;;8.73;;
68247;SDS011;55064;49.636;12.164;2024-01-30T08:03:18;20.65;;;9.07;;
68247;SDS011;55064;49.636;12.164;2024-01-30T08:05:43;22.97;;;8.80;;
68247;SDS011;55064;49.636;12.164;2024-01-30T08:08:09;22.67;;;8.73;;
68247;SDS011;55064;49.636;12.164;2024-01-30T08:10:34;24.40;;;10.27;;
68247;SDS011;55064;49.636;12.164;2024-01-30T08:13:00;21.60;;;8.77;;
68247;SDS011;55064;49.636;12.164;2024-01-30T08:15:25;16.97;;;8.00;;
68247;SDS011;55064;49.636;12.164;2024-01-30T08:17:50;21.40;;;7.93;;
68247;SDS011;55064;49.636;12.164;2024-01-30T08:20:20;21.00;;;9.07;;
68247;SDS011;55064;49.636;12.164;2024-01-30T08:22:47;22.60;;;9.30;;
68247;SDS011;55064;49.636;12.164;2024-01-30T08:25:13;18.87;;;7.67;;
68247;SDS011;55064;49.636;12.164;2024-01-30T08:27:39;22.20;;;8.80;;
68247;SDS011;55064;49.636;12.164;2024-01-30T08:30:06;22.00;;;9.30;;
68247;SDS011;55064;49.636;12.164;2024-01-30T08:32:31;24.23;;;9.23;;
68247;SDS011;55064;49.636;12.164;2024-01-30T08:34:57;20.65;;;8.88;;
68247;SDS011;55064;49.636;12.164;2024-01-30T08:37:23;21.13;;;9.10;;
68247;SDS011;55064;49.636;12.164;2024-01-30T08:39:48;25.33;;;9.70;;
68247;SDS011;55064;49.636;12.164;2024-01-30T08:42:14;25.23;;;9.93;;
68247;SDS011;55064;49.636;12.164;2024-01-30T08:44:39;21.77;;;10.20;;
68247;SDS011;55064;49.636;12.164;2024-01-30T08:47:04;23.40;;;10.10;;
68247;SDS011;55064;49.636;12.164;2024-01-30T08:49:30;27.45;;;10.82;;
68247;SDS011;55064;49.636;12.164;2024-01-30T08:51:56;25.73;;;10.30;;
68247;SDS011;55064;49.636;12.164;2024-01-30T08:54:22;26.37;;;11.20;;
68247;SDS011;55064;49.636;12.164;2024-01-30T08:56:48;29.65;;;11.73;;
68247;SDS011;55064;49.636;12.164;2024-01-30T08:59:14;27.37;;;11.40;;
68247;SDS011;55064;49.636;12.164;2024-01-30T09:01:39;24.80;;;10.90;;
68247;SDS011;55064;49.636;12.164;2024-01-30T09:04:05;25.17;;;11.50;;
68247;SDS011;55064;49.636;12.164;2024-01-30T09:06:30;28.13;;;11.67;;
68247;SDS011;55064;49.636;12.164;2024-01-30T09:08:56;27.48;;;11.85;;
68247;SDS011;55064;49.636;12.164;2024-01-30T09:11:22;28.23;;;12.05;;
68247;SDS011;55064;49.636;12.164;2024-01-30T09:13:48;26.13;;;12.40;;
68247;SDS011;55064;49.636;12.164;2024-01-30T09:16:13;27.37;;;12.23;;
68247;SDS011;55064;49.636;12.164;2024-01-30T09:18:40;29.83;;;12.27;;
68247;SDS011;55064;49.636;12.164;2024-01-30T09:21:06;25.30;;;10.90;;
68247;SDS011;55064;49.636;12.164;2024-01-30T09:23:31;28.53;;;11.70;;
68247;SDS011;55064;49.636;12.164;2024-01-30T09:25:57;23.98;;;10.75;;
68247;SDS011;55064;49.636;12.164;2024-01-30T09:28:22;23.50;;;10.03;;
68247;SDS011;55064;49.636;12.164;2024-01-30T09:30:48;23.67;;;9.40;;
68247;SDS011;55064;49.636;12.164;2024-01-30T09:33:14;21.55;;;9.68;;
68247;SDS011;55064;49.636;12.164;2024-01-30T09:35:40;22.20;;;9.63;;
68247;SDS011;55064;49.636;12.164;2024-01-30T09:38:05;25.48;;;10.80;;
68247;SDS011;55064;49.636;12.164;2024-01-30T09:40:31;28.13;;;11.03;;
68247;SDS011;55064;49.636;12.164;2024-01-30T09:42:56;30.20;;;11.20;;
68247;SDS011;55064;49.636;12.164;2024-01-30T09:45:24;26.88;;;11.10;;
68247;SDS011;55064;49.636;12.164;2024-01-30T09:47:50;25.25;;;10.20;;
68247;SDS011;55064;49.636;12.164;2024-01-30T09:50:16;23.40;;;10.97;;
68247;SDS011;55064;49.636;12.164;2024-01-30T09:52:45;22.55;;;10.13;;
68247;SDS011;55064;49.636;12.164;2024-01-30T09:55:12;22.25;;;10.57;;
68247;SDS011;55064;49.636;12.164;2024-01-30T09:57:37;21.40;;;9.70;;
68247;SDS011;55064;49.636;12.164;2024-01-30T10:00:04;20.17;;;9.55;;
68247;SDS011;55064;49.636;12.164;2024-01-30T10:02:32;21.80;;;8.77;;
68247;SDS011;55064;49.636;12.164;2024-01-30T10:04:58;20.73;;;8.70;;
68247;SDS011;55064;49.636;12.164;2024-01-30T10:07:25;20.35;;;9.20;;
68247;SDS011;55064;49.636;12.164;2024-01-30T10:09:50;17.77;;;8.43;;
68247;SDS011;55064;49.636;12.164;2024-01-30T10:12:15;20.90;;;8.33;;
68247;SDS011;55064;49.636;12.164;2024-01-30T10:14:42;20.23;;;9.00;;
68247;SDS011;55064;49.636;12.164;2024-01-30T10:17:11;25.15;;;9.80;;
68247;SDS011;55064;49.636;12.164;2024-01-30T10:19:37;19.02;;;8.57;;
68247;SDS011;55064;49.636;12.164;2024-01-30T10:22:06;20.37;;;8.87;;
68247;SDS011;55064;49.636;12.164;2024-01-30T10:24:35;19.42;;;9.18;;
68247;SDS011;55064;49.636;12.164;2024-01-30T10:27:01;20.42;;;9.32;;
68247;SDS011;55064;49.636;12.164;2024-01-30T10:29:27;20.70;;;9.57;;
68247;SDS011;55064;49.636;12.164;2024-01-30T10:32:03;20.00;;;9.35;;
68247;SDS011;55064;49.636;12.164;2024-01-30T10:34:30;20.23;;;9.40;;
68247;SDS011;55064;49.636;12.164;2024-01-30T10:36:59;20.70;;;8.98;;
68247;SDS011;55064;49.636;12.164;2024-01-30T10:39:37;20.13;;;9.50;;
68247;SDS011;55064;49.636;12.164;2024-01-30T10:42:04;20.55;;;9.27;;
68247;SDS011;55064;49.636;12.164;2024-01-30T10:44:39;21.40;;;9.70;;
68247;SDS011;55064;49.636;12.164;2024-01-30T10:47:18;21.40;;;9.98;;
68247;SDS011;55064;49.636;12.164;2024-01-30T10:49:55;21.77;;;9.20;;
68247;SDS011;55064;49.636;12.164;2024-01-30T10:52:22;23.03;;;9.30;;
68247;SDS011;55064;49.636;12.164;2024-01-30T10:54:48;22.10;;;9.85;;
68247;SDS011;55064;49.636;12.164;2024-01-30T10:57:15;23.85;;;9.57;;
68247;SDS011;55064;49.636;12.164;2024-01-30T10:59:41;20.73;;;9.48;;
68247;SDS011;55064;49.636;12.164;2024-01-30T11:02:09;22.60;;;9.70;;
68247;SDS011;55064;49.636;12.164;2024-01-30T11:04:40;21.97;;;10.27;;
68247;SDS011;55064;49.636;12.164;2024-01-30T11:07:16;20.50;;;9.57;;
68247;SDS011;55064;49.636;12.164;2024-01-30T11:09:51;20.20;;;9.57;;
68247;SDS011;55064;49.636;12.164;2024-01-30T11:12:26;17.88;;;8.85;;
68247;SDS011;55064;49.636;12.164;2024-01-30T11:22:49;20.83;;;9.55;;
68247;SDS011;55064;49.636;12.164;2024-01-30T11:25:19;23.58;;;10.15;;
68247;SDS011;55064;49.636;12.164;2024-01-30T11:27:45;19.55;;;9.40;;
68247;SDS011;55064;49.636;12.164;2024-01-30T11:30:32;21.93;;;10.27;;
68247;SDS011;55064;49.636;12.164;2024-01-30T11:33:42;22.50;;;9.80;;
68247;SDS011;55064;49.636;12.164;2024-01-30T11:35:56;19.30;;;9.02;;
68247;SDS011;55064;49.636;12.164;2024-01-30T11:38:23;24.45;;;9.95;;
68247;SDS011;55064;49.636;12.164;2024-01-30T11:40:51;19.30;;;9.40;;
68247;SDS011;55064;49.636;12.164;2024-01-30T11:43:18;19.77;;;9.70;;
68247;SDS011;55064;49.636;12.164;2024-01-30T11:45:44;20.38;;;9.93;;
68247;SDS011;55064;49.636;12.164;2024-01-30T11:48:11;21.02;;;10.32;;
68247;SDS011;55064;49.636;12.164;2024-01-30T11:50:37;25.67;;;10.35;;
68247;SDS011;55064;49.636;12.164;2024-01-30T11:53:28;28.48;;;11.75;;
68247;SDS011;55064;49.636;12.164;2024-01-30T11:55:53;26.87;;;11.40;;
68247;SDS011;55064;49.636;12.164;2024-01-30T11:58:20;27.50;;;12.70;;
68247;SDS011;55064;49.636;12.164;2024-01-30T12:00:56;21.08;;;10.32;;
68247;SDS011;55064;49.636;12.164;2024-01-30T12:03:21;23.53;;;10.20;;
68247;SDS011;55064;49.636;12.164;2024-01-30T12:05:54;24.98;;;12.50;;
68247;SDS011;55064;49.636;12.164;2024-01-30T12:08:20;23.33;;;11.33;;
68247;SDS011;55064;49.636;12.164;2024-01-30T12:10:45;30.63;;;10.40;;
68247;SDS011;55064;49.636;12.164;2024-01-30T12:13:11;24.07;;;10.10;;
68247;SDS011;55064;49.636;12.164;2024-01-30T12:15:37;19.95;;;10.10;;
68247;SDS011;55064;49.636;12.164;2024-01-30T12:18:03;23.70;;;9.63;;
68247;SDS011;55064;49.636;12.164;2024-01-30T12:20:30;22.40;;;9.70;;
68247;SDS011;55064;49.636;12.164;2024-01-30T12:22:55;20.30;;;9.20;;
68247;SDS011;55064;49.636;12.164;2024-01-30T12:25:21;23.37;;;9.70;;
68247;SDS011;55064;49.636;12.164;2024-01-30T12:27:48;22.88;;;9.57;;
68247;SDS011;55064;49.636;12.164;2024-01-30T12:30:15;22.70;;;10.77;;
68247;SDS011;55064;49.636;12.164;2024-01-30T12:32:44;19.75;;;9.02;;
68247;SDS011;55064;49.636;12.164;2024-01-30T12:35:11;20.83;;;9.13;;
68247;SDS011;55064;49.636;12.164;2024-01-30T12:37:38;21.33;;;10.30;;
68247;SDS011;55064;49.636;12.164;2024-01-30T12:40:04;20.70;;;9.75;;
68247;SDS011;55064;49.636;12.164;2024-01-30T12:42:31;20.98;;;9.70;;
68247;SDS011;55064;49.636;12.164;2024-01-30T12:44:59;22.03;;;10.37;;
68247;SDS011;55064;49.636;12.164;2024-01-30T12:47:25;25.27;;;10.20;;
68247;SDS011;55064;49.636;12.164;2024-01-30T12:49:51;20.45;;;9.90;;
68247;SDS011;55064;49.636;12.164;2024-01-30T12:52:20;23.40;;;10.48;;
68247;SDS011;55064;49.636;12.164;2024-01-30T12:54:46;20.63;;;10.57;;
68247;SDS011;55064;49.636;12.164;2024-01-30T12:57:12;20.38;;;10.13;;
68247;SDS011;55064;49.636;12.164;2024-01-30T12:59:37;17.73;;;9.17;;
68247;SDS011;55064;49.636;12.164;2024-01-30T13:02:04;22.95;;;10.38;;
68247;SDS011;55064;49.636;12.164;2024-01-30T13:04:29;21.90;;;10.33;;
68247;SDS011;55064;49.636;12.164;2024-01-30T13:06:55;23.73;;;9.73;;
68247;SDS011;55064;49.636;12.164;2024-01-30T13:09:20;22.60;;;10.45;;
68247;SDS011;55064;49.636;12.164;2024-01-30T13:11:46;26.93;;;10.87;;
68247;SDS011;55064;49.636;12.164;2024-01-30T13:14:11;20.77;;;9.43;;
68247;SDS011;55064;49.636;12.164;2024-01-30T13:16:37;22.02;;;9.57;;
68247;SDS011;55064;49.636;12.164;2024-01-30T13:19:02;21.10;;;9.57;;
68247;SDS011;55064;49.636;12.164;2024-01-30T13:21:28;26.75;;;10.35;;
68247;SDS011;55064;49.636;12.164;2024-01-30T13:23:54;18.97;;;10.00;;
68247;SDS011;55064;49.636;12.164;2024-01-30T13:26:20;23.42;;;10.18;;
68247;SDS011;55064;49.636;12.164;2024-01-30T13:28:45;20.35;;;9.43;;
68247;SDS011;55064;49.636;12.164;2024-01-30T13:31:11;20.27;;;9.60;;
68247;SDS011;55064;49.636;12.164;2024-01-30T13:33:37;20.35;;;9.85;;
68247;SDS011;55064;49.636;12.164;2024-01-30T13:36:02;23.10;;;11.30;;
68247;SDS011;55064;49.636;12.164;2024-01-30T13:38:28;23.13;;;10.87;;
68247;SDS011;55064;49.636;12.164;2024-01-30T13:40:53;20.50;;;9.63;;
68247;SDS011;55064;49.636;12.164;2024-01-30T13:43:19;25.70;;;11.03;;
68247;SDS011;55064;49.636;12.164;2024-01-30T13:45:44;23.73;;;10.17;;
68247;SDS011;55064;49.636;12.164;2024-01-30T13:48:10;19.80;;;10.32;;
68247;SDS011;55064;49.636;12.164;2024-01-30T13:50:36;23.00;;;10.57;;
68247;SDS011;55064;49.636;12.164;2024-01-30T13:53:02;24.60;;;11.00;;
68247;SDS011;55064;49.636;12.164;2024-01-30T13:55:29;24.73;;;11.00;;
68247;SDS011;55064;49.636;12.164;2024-01-30T13:57:54;25.37;;;11.57;;
68247;SDS011;55064;49.636;12.164;2024-01-30T14:00:20;22.95;;;10.52;;
68247;SDS011;55064;49.636;12.164;2024-01-30T14:02:47;23.30;;;10.67;;
68247;SDS011;55064;49.636;12.164;2024-01-30T14:05:12;27.05;;;12.38;;
68247;SDS011;55064;49.636;12.164;2024-01-30T14:07:39;26.00;;;11.80;;
68247;SDS011;55064;49.636;12.164;2024-01-30T14:10:05;26.05;;;11.35;;
68247;SDS011;55064;49.636;12.164;2024-01-30T14:12:31;27.58;;;11.10;;
68247;SDS011;55064;49.636;12.164;2024-01-30T14:14:56;31.23;;;13.23;;
68247;SDS011;55064;49.636;12.164;2024-01-30T14:17:21;27.03;;;14.67;;
68247;SDS011;55064;49.636;12.164;2024-01-30T14:19:47;24.77;;;11.83;;
68247;SDS011;55064;49.636;12.164;2024-01-30T14:22:12;21.30;;;11.18;;